Aérodrome :
LOGIN :

S'inscrire | Disclaimer

   EN    FR    IT 

 










Légende :    VFR   VFR Marginal   IFR   IFR Intensif   IFR Très Intensif
Visi : 
Plafond : 
>= 8 km
>= 3000ft
5 à 8 km
1000 à 3000 ft
1500m à 5 km
500 à 1000 ft
800 à 1500m
200 à 500 ft
< 800m
< 200 ft
Symboles :   Orages  Brouillard  Fortes neiges  Fortes précipitations  Vent > 20 kt
SIGMETs :   Divers  Orages  Givrage  Turbulence  Onde Orograph.  Cendres Volcan.







- Altitude de l'aérodrome : 170 ft
- Code IATA : BGO


ENBR - Bergen , Flesland

DERNIER METAR :
  • 220920Z 13010KT 9999 FEW012 BKN020 15/12 Q1011 TEMPO BKN012 RMK WIND 1200FT 14019KT

METARs EXPIRÉS :
  • 220850Z 15012KT 9999 -DZ FEW014 BKN020 15/12 Q1011 TEMPO BKN012 RMK WIND 1200FT 14019KT
  • 220820Z 14011KT 9999 -RADZ BKN021 15/12 Q1011 NOSIG RMK WIND 1200FT 13019KT
  • 220750Z 14010KT 9999 VCSH FEW020 BKN025 15/12 Q1012 TEMPO -DZ BKN013 RMK WIND 1200FT 14020KT
  • 220720Z 13010KT 9999 BKN025 14/12 Q1012 TEMPO 4000 DZ BKN013 RMK WIND 1200FT 14018KT
  • 220650Z 13011KT 9999 VCSH FEW009 SCT013 BKN020 14/11 Q1012 TEMPO 4000 DZ BKN013 RMK WIND 1200FT 14018KT

TAF TAF ENBR
Valide du 22 à 06h jusqu'au 23 à 06h UTC


2206/2306 15008KT 9999 FEW015 BKN030
TEMPO 2207/2214 RA
BECMG 2213/2215 SCT004 BKN010
TEMPO 2213/2224 3000 RADZ BR BKN004
Pas de NOTAMs connus pour ce terrain.



MET'MAP, la Météo Aéronautique d'un coup d'oeil ! - Copyright ORBIFLY Décembre 2007 - Disclaimer

ORBIFLY MET'MAP TEAM :

Programmation & Développement : Alexandra Zaïnal
Conception & Développement : Baudouin d'Aumeries
Co-Programmation & Développement : Marc-Olivier Méhu
Soutien technique & logistique : Manuel Goepfert

Contact : metmap@orbifly.com




SOURCES & CREDITS :

   NOAA